sensor_id;sensor_type;location;lat;lon;timestamp;P1;durP1;ratioP1;P2;durP2;ratioP2
46110;SDS011;31849;55.992;37.252;2023-07-02T00:01:13;9.02;;;6.88;;
46110;SDS011;31849;55.992;37.252;2023-07-02T00:06:17;9.30;;;6.93;;
46110;SDS011;31849;55.992;37.252;2023-07-02T00:11:22;11.10;;;6.77;;
46110;SDS011;31849;55.992;37.252;2023-07-02T00:16:25;7.68;;;6.88;;
46110;SDS011;31849;55.992;37.252;2023-07-02T00:21:29;10.75;;;7.40;;
46110;SDS011;31849;55.992;37.252;2023-07-02T00:26:36;8.48;;;6.22;;
46110;SDS011;31849;55.992;37.252;2023-07-02T00:31:40;8.50;;;7.60;;
46110;SDS011;31849;55.992;37.252;2023-07-02T00:36:43;10.13;;;6.73;;
46110;SDS011;31849;55.992;37.252;2023-07-02T00:41:48;7.97;;;7.17;;
46110;SDS011;31849;55.992;37.252;2023-07-02T00:46:52;8.40;;;6.45;;
46110;SDS011;31849;55.992;37.252;2023-07-02T00:51:56;7.88;;;6.93;;
46110;SDS011;31849;55.992;37.252;2023-07-02T00:57:01;8.63;;;7.30;;
46110;SDS011;31849;55.992;37.252;2023-07-02T01:02:05;8.40;;;7.50;;
46110;SDS011;31849;55.992;37.252;2023-07-02T01:07:09;9.05;;;7.50;;
46110;SDS011;31849;55.992;37.252;2023-07-02T01:12:14;7.68;;;6.88;;
46110;SDS011;31849;55.992;37.252;2023-07-02T01:17:20;8.80;;;7.00;;
46110;SDS011;31849;55.992;37.252;2023-07-02T01:22:28;10.82;;;6.97;;
46110;SDS011;31849;55.992;37.252;2023-07-02T01:27:32;7.40;;;6.60;;
46110;SDS011;31849;55.992;37.252;2023-07-02T01:32:37;9.27;;;6.55;;
46110;SDS011;31849;55.992;37.252;2023-07-02T01:37:43;9.23;;;6.57;;
46110;SDS011;31849;55.992;37.252;2023-07-02T01:42:46;9.15;;;6.97;;
46110;SDS011;31849;55.992;37.252;2023-07-02T01:47:50;8.10;;;7.10;;
46110;SDS011;31849;55.992;37.252;2023-07-02T01:52:55;8.55;;;6.70;;
46110;SDS011;31849;55.992;37.252;2023-07-02T01:57:58;7.25;;;6.47;;
46110;SDS011;31849;55.992;37.252;2023-07-02T02:03:02;8.90;;;6.67;;
46110;SDS011;31849;55.992;37.252;2023-07-02T02:08:09;14.23;;;6.30;;
46110;SDS011;31849;55.992;37.252;2023-07-02T02:13:12;9.15;;;6.68;;
46110;SDS011;31849;55.992;37.252;2023-07-02T02:18:16;9.67;;;6.73;;
46110;SDS011;31849;55.992;37.252;2023-07-02T02:23:41;7.75;;;6.75;;
46110;SDS011;31849;55.992;37.252;2023-07-02T02:28:44;9.77;;;7.10;;
46110;SDS011;31849;55.992;37.252;2023-07-02T02:33:48;11.60;;;7.27;;
46110;SDS011;31849;55.992;37.252;2023-07-02T02:38:53;10.30;;;6.83;;
46110;SDS011;31849;55.992;37.252;2023-07-02T02:43:57;7.22;;;6.50;;
46110;SDS011;31849;55.992;37.252;2023-07-02T02:49:00;7.50;;;6.57;;
46110;SDS011;31849;55.992;37.252;2023-07-02T02:54:05;8.30;;;6.80;;
46110;SDS011;31849;55.992;37.252;2023-07-02T02:59:10;7.22;;;6.40;;
46110;SDS011;31849;55.992;37.252;2023-07-02T03:04:14;7.50;;;6.40;;
46110;SDS011;31849;55.992;37.252;2023-07-02T03:09:19;9.18;;;6.05;;
46110;SDS011;31849;55.992;37.252;2023-07-02T03:14:23;8.38;;;5.75;;
46110;SDS011;31849;55.992;37.252;2023-07-02T03:19:26;6.47;;;5.77;;
46110;SDS011;31849;55.992;37.252;2023-07-02T03:24:31;7.38;;;5.40;;
46110;SDS011;31849;55.992;37.252;2023-07-02T03:29:35;8.23;;;5.07;;
46110;SDS011;31849;55.992;37.252;2023-07-02T03:34:40;11.13;;;5.40;;
46110;SDS011;31849;55.992;37.252;2023-07-02T03:39:45;6.35;;;5.20;;
46110;SDS011;31849;55.992;37.252;2023-07-02T03:44:48;7.65;;;5.50;;
46110;SDS011;31849;55.992;37.252;2023-07-02T03:49:52;7.22;;;5.13;;
46110;SDS011;31849;55.992;37.252;2023-07-02T03:54:57;6.18;;;5.20;;
46110;SDS011;31849;55.992;37.252;2023-07-02T04:00:01;9.88;;;5.47;;
46110;SDS011;31849;55.992;37.252;2023-07-02T04:05:07;7.10;;;4.95;;
46110;SDS011;31849;55.992;37.252;2023-07-02T04:15:16;9.27;;;5.20;;
46110;SDS011;31849;55.992;37.252;2023-07-02T04:20:19;7.43;;;4.85;;
46110;SDS011;31849;55.992;37.252;2023-07-02T04:35:53;8.13;;;4.75;;
46110;SDS011;31849;55.992;37.252;2023-07-02T04:40:58;5.53;;;4.10;;
46110;SDS011;31849;55.992;37.252;2023-07-02T04:46:07;5.95;;;3.90;;
46110;SDS011;31849;55.992;37.252;2023-07-02T04:51:11;5.90;;;4.07;;
46110;SDS011;31849;55.992;37.252;2023-07-02T04:56:16;5.90;;;3.55;;
46110;SDS011;31849;55.992;37.252;2023-07-02T05:01:19;6.30;;;3.95;;
46110;SDS011;31849;55.992;37.252;2023-07-02T05:06:23;6.07;;;3.50;;
46110;SDS011;31849;55.992;37.252;2023-07-02T05:11:28;5.43;;;3.88;;
46110;SDS011;31849;55.992;37.252;2023-07-02T05:16:31;5.80;;;3.92;;
46110;SDS011;31849;55.992;37.252;2023-07-02T05:21:35;6.50;;;3.55;;
46110;SDS011;31849;55.992;37.252;2023-07-02T05:26:40;4.78;;;3.30;;
46110;SDS011;31849;55.992;37.252;2023-07-02T05:31:44;5.47;;;3.70;;
46110;SDS011;31849;55.992;37.252;2023-07-02T05:36:48;5.82;;;3.97;;
46110;SDS011;31849;55.992;37.252;2023-07-02T05:41:53;5.82;;;3.75;;
46110;SDS011;31849;55.992;37.252;2023-07-02T05:46:56;5.53;;;3.78;;
46110;SDS011;31849;55.992;37.252;2023-07-02T05:52:02;6.10;;;3.70;;
46110;SDS011;31849;55.992;37.252;2023-07-02T05:57:07;4.38;;;3.10;;
46110;SDS011;31849;55.992;37.252;2023-07-02T06:02:11;5.25;;;3.75;;
46110;SDS011;31849;55.992;37.252;2023-07-02T06:07:14;5.20;;;3.30;;
46110;SDS011;31849;55.992;37.252;2023-07-02T06:12:19;4.93;;;3.42;;
46110;SDS011;31849;55.992;37.252;2023-07-02T06:17:23;4.35;;;3.30;;
46110;SDS011;31849;55.992;37.252;2023-07-02T06:22:27;5.13;;;3.50;;
46110;SDS011;31849;55.992;37.252;2023-07-02T06:27:32;3.80;;;3.20;;
46110;SDS011;31849;55.992;37.252;2023-07-02T06:32:36;5.45;;;3.20;;
46110;SDS011;31849;55.992;37.252;2023-07-02T06:37:40;7.57;;;3.50;;
46110;SDS011;31849;55.992;37.252;2023-07-02T06:42:45;5.43;;;3.70;;
46110;SDS011;31849;55.992;37.252;2023-07-02T06:47:49;7.82;;;3.70;;
46110;SDS011;31849;55.992;37.252;2023-07-02T06:52:53;6.38;;;3.80;;
46110;SDS011;31849;55.992;37.252;2023-07-02T06:57:58;9.00;;;3.83;;
46110;SDS011;31849;55.992;37.252;2023-07-02T07:03:02;5.20;;;3.28;;
46110;SDS011;31849;55.992;37.252;2023-07-02T07:08:06;5.55;;;3.42;;
46110;SDS011;31849;55.992;37.252;2023-07-02T07:13:11;5.30;;;3.30;;
46110;SDS011;31849;55.992;37.252;2023-07-02T07:18:14;6.30;;;3.60;;
46110;SDS011;31849;55.992;37.252;2023-07-02T07:23:20;8.13;;;3.90;;
46110;SDS011;31849;55.992;37.252;2023-07-02T07:28:26;5.45;;;4.05;;
46110;SDS011;31849;55.992;37.252;2023-07-02T07:33:29;7.10;;;3.60;;
46110;SDS011;31849;55.992;37.252;2023-07-02T07:38:33;6.50;;;3.63;;
46110;SDS011;31849;55.992;37.252;2023-07-02T07:43:38;6.65;;;3.60;;
46110;SDS011;31849;55.992;37.252;2023-07-02T07:48:41;5.93;;;3.97;;
46110;SDS011;31849;55.992;37.252;2023-07-02T07:59:19;4.70;;;3.78;;
46110;SDS011;31849;55.992;37.252;2023-07-02T08:04:22;8.27;;;6.75;;
46110;SDS011;31849;55.992;37.252;2023-07-02T08:09:26;6.88;;;3.50;;
46110;SDS011;31849;55.992;37.252;2023-07-02T08:14:34;5.35;;;3.70;;
46110;SDS011;31849;55.992;37.252;2023-07-02T08:19:39;4.25;;;3.03;;
46110;SDS011;31849;55.992;37.252;2023-07-02T08:24:43;5.25;;;3.05;;
46110;SDS011;31849;55.992;37.252;2023-07-02T08:29:48;6.68;;;3.40;;
46110;SDS011;31849;55.992;37.252;2023-07-02T08:34:52;6.70;;;3.42;;
46110;SDS011;31849;55.992;37.252;2023-07-02T08:39:55;5.35;;;3.10;;
46110;SDS011;31849;55.992;37.252;2023-07-02T08:45:00;5.80;;;3.03;;
46110;SDS011;31849;55.992;37.252;2023-07-02T08:50:06;5.47;;;3.20;;
46110;SDS011;31849;55.992;37.252;2023-07-02T08:55:10;6.47;;;3.60;;
46110;SDS011;31849;55.992;37.252;2023-07-02T09:00:15;6.07;;;3.20;;
46110;SDS011;31849;55.992;37.252;2023-07-02T09:05:19;5.85;;;3.38;;
46110;SDS011;31849;55.992;37.252;2023-07-02T09:10:26;6.28;;;3.25;;
46110;SDS011;31849;55.992;37.252;2023-07-02T09:15:39;5.07;;;2.90;;
46110;SDS011;31849;55.992;37.252;2023-07-02T09:20:43;5.28;;;3.38;;
46110;SDS011;31849;55.992;37.252;2023-07-02T09:25:48;7.65;;;3.13;;
46110;SDS011;31849;55.992;37.252;2023-07-02T09:30:54;9.88;;;3.53;;
46110;SDS011;31849;55.992;37.252;2023-07-02T09:35:59;5.00;;;3.35;;
46110;SDS011;31849;55.992;37.252;2023-07-02T09:41:03;6.35;;;3.60;;
46110;SDS011;31849;55.992;37.252;2023-07-02T09:46:08;6.95;;;3.35;;
46110;SDS011;31849;55.992;37.252;2023-07-02T09:51:11;8.48;;;3.25;;
46110;SDS011;31849;55.992;37.252;2023-07-02T09:56:15;5.50;;;3.28;;
46110;SDS011;31849;55.992;37.252;2023-07-02T10:01:21;5.60;;;3.28;;
46110;SDS011;31849;55.992;37.252;2023-07-02T10:06:25;7.45;;;3.10;;
46110;SDS011;31849;55.992;37.252;2023-07-02T10:16:49;5.70;;;3.17;;
46110;SDS011;31849;55.992;37.252;2023-07-02T10:22:00;6.30;;;3.22;;
46110;SDS011;31849;55.992;37.252;2023-07-02T10:27:05;6.93;;;3.22;;
46110;SDS011;31849;55.992;37.252;2023-07-02T10:32:11;5.88;;;3.15;;
46110;SDS011;31849;55.992;37.252;2023-07-02T10:37:14;6.70;;;3.28;;
46110;SDS011;31849;55.992;37.252;2023-07-02T10:42:19;8.10;;;3.20;;
46110;SDS011;31849;55.992;37.252;2023-07-02T10:47:24;7.32;;;3.88;;
46110;SDS011;31849;55.992;37.252;2023-07-02T10:52:36;5.35;;;3.42;;
46110;SDS011;31849;55.992;37.252;2023-07-02T10:57:40;7.50;;;3.28;;
46110;SDS011;31849;55.992;37.252;2023-07-02T11:02:45;6.20;;;3.40;;
46110;SDS011;31849;55.992;37.252;2023-07-02T11:07:49;6.10;;;3.55;;
46110;SDS011;31849;55.992;37.252;2023-07-02T11:12:58;6.78;;;2.97;;
46110;SDS011;31849;55.992;37.252;2023-07-02T11:18:14;6.93;;;3.63;;
46110;SDS011;31849;55.992;37.252;2023-07-02T11:23:19;9.90;;;3.65;;
46110;SDS011;31849;55.992;37.252;2023-07-02T11:28:25;6.68;;;3.65;;
46110;SDS011;31849;55.992;37.252;2023-07-02T11:33:34;5.22;;;3.50;;
46110;SDS011;31849;55.992;37.252;2023-07-02T11:38:38;5.38;;;3.20;;
46110;SDS011;31849;55.992;37.252;2023-07-02T11:43:42;5.78;;;3.28;;
46110;SDS011;31849;55.992;37.252;2023-07-02T11:53:50;6.25;;;3.30;;
46110;SDS011;31849;55.992;37.252;2023-07-02T12:03:58;5.82;;;3.60;;
46110;SDS011;31849;55.992;37.252;2023-07-02T12:09:02;4.35;;;3.30;;
46110;SDS011;31849;55.992;37.252;2023-07-02T12:19:10;6.30;;;3.50;;
46110;SDS011;31849;55.992;37.252;2023-07-02T12:24:14;6.45;;;3.60;;
46110;SDS011;31849;55.992;37.252;2023-07-02T12:34:23;6.13;;;3.80;;
46110;SDS011;31849;55.992;37.252;2023-07-02T12:39:26;5.70;;;4.05;;
46110;SDS011;31849;55.992;37.252;2023-07-02T12:49:34;6.40;;;4.35;;
46110;SDS011;31849;55.992;37.252;2023-07-02T12:54:39;6.65;;;4.53;;
46110;SDS011;31849;55.992;37.252;2023-07-02T13:04:47;7.00;;;4.70;;
46110;SDS011;31849;55.992;37.252;2023-07-02T13:09:51;7.78;;;4.10;;
46110;SDS011;31849;55.992;37.252;2023-07-02T13:19:59;8.23;;;3.60;;
46110;SDS011;31849;55.992;37.252;2023-07-02T13:25:04;7.43;;;4.45;;
46110;SDS011;31849;55.992;37.252;2023-07-02T13:30:09;5.95;;;4.40;;
46110;SDS011;31849;55.992;37.252;2023-07-02T13:35:15;6.43;;;3.90;;
46110;SDS011;31849;55.992;37.252;2023-07-02T13:40:19;7.95;;;4.35;;
46110;SDS011;31849;55.992;37.252;2023-07-02T13:50:27;7.47;;;4.25;;
46110;SDS011;31849;55.992;37.252;2023-07-02T13:55:31;5.28;;;3.80;;
46110;SDS011;31849;55.992;37.252;2023-07-02T14:00:35;7.78;;;4.30;;
46110;SDS011;31849;55.992;37.252;2023-07-02T14:05:39;7.00;;;4.32;;
46110;SDS011;31849;55.992;37.252;2023-07-02T14:10:43;7.53;;;4.40;;
46110;SDS011;31849;55.992;37.252;2023-07-02T14:15:49;6.38;;;4.07;;
46110;SDS011;31849;55.992;37.252;2023-07-02T14:20:54;6.38;;;4.30;;
46110;SDS011;31849;55.992;37.252;2023-07-02T14:25:57;7.13;;;4.13;;
46110;SDS011;31849;55.992;37.252;2023-07-02T14:36:07;6.85;;;4.40;;
46110;SDS011;31849;55.992;37.252;2023-07-02T14:41:10;8.82;;;4.30;;
46110;SDS011;31849;55.992;37.252;2023-07-02T14:46:16;7.20;;;4.40;;
46110;SDS011;31849;55.992;37.252;2023-07-02T14:51:19;7.50;;;4.00;;
46110;SDS011;31849;55.992;37.252;2023-07-02T14:56:23;7.30;;;4.15;;
46110;SDS011;31849;55.992;37.252;2023-07-02T15:01:28;7.43;;;4.55;;
46110;SDS011;31849;55.992;37.252;2023-07-02T15:06:32;6.68;;;4.82;;
46110;SDS011;31849;55.992;37.252;2023-07-02T15:11:36;10.38;;;4.90;;
46110;SDS011;31849;55.992;37.252;2023-07-02T15:16:41;6.03;;;5.10;;
46110;SDS011;31849;55.992;37.252;2023-07-02T15:21:45;6.75;;;4.63;;
46110;SDS011;31849;55.992;37.252;2023-07-02T15:26:48;7.68;;;5.03;;
46110;SDS011;31849;55.992;37.252;2023-07-02T15:31:53;7.75;;;4.35;;
46110;SDS011;31849;55.992;37.252;2023-07-02T15:36:57;6.93;;;4.57;;
46110;SDS011;31849;55.992;37.252;2023-07-02T15:42:00;7.93;;;4.93;;
46110;SDS011;31849;55.992;37.252;2023-07-02T15:47:05;8.00;;;5.30;;
46110;SDS011;31849;55.992;37.252;2023-07-02T15:52:09;7.43;;;5.07;;
46110;SDS011;31849;55.992;37.252;2023-07-02T15:57:13;8.00;;;5.03;;
46110;SDS011;31849;55.992;37.252;2023-07-02T16:07:24;9.38;;;5.40;;
46110;SDS011;31849;55.992;37.252;2023-07-02T16:12:28;8.43;;;5.43;;
46110;SDS011;31849;55.992;37.252;2023-07-02T16:17:33;9.45;;;5.95;;
46110;SDS011;31849;55.992;37.252;2023-07-02T16:22:36;7.97;;;5.40;;
46110;SDS011;31849;55.992;37.252;2023-07-02T16:27:40;9.70;;;5.63;;
46110;SDS011;31849;55.992;37.252;2023-07-02T16:32:45;8.60;;;6.13;;
46110;SDS011;31849;55.992;37.252;2023-07-02T16:37:49;11.52;;;5.90;;
46110;SDS011;31849;55.992;37.252;2023-07-02T16:42:52;11.88;;;6.40;;
46110;SDS011;31849;55.992;37.252;2023-07-02T16:47:57;10.55;;;6.18;;
46110;SDS011;31849;55.992;37.252;2023-07-02T16:53:01;8.70;;;5.65;;
46110;SDS011;31849;55.992;37.252;2023-07-02T16:58:05;9.18;;;6.03;;
46110;SDS011;31849;55.992;37.252;2023-07-02T17:03:10;7.85;;;6.10;;
46110;SDS011;31849;55.992;37.252;2023-07-02T17:08:14;7.68;;;5.72;;
46110;SDS011;31849;55.992;37.252;2023-07-02T17:13:17;9.75;;;6.03;;
46110;SDS011;31849;55.992;37.252;2023-07-02T17:18:23;7.68;;;5.47;;
46110;SDS011;31849;55.992;37.252;2023-07-02T17:23:26;10.15;;;6.07;;
46110;SDS011;31849;55.992;37.252;2023-07-02T17:28:30;9.10;;;5.70;;
46110;SDS011;31849;55.992;37.252;2023-07-02T17:33:37;9.88;;;5.95;;
46110;SDS011;31849;55.992;37.252;2023-07-02T17:38:43;10.77;;;6.07;;
46110;SDS011;31849;55.992;37.252;2023-07-02T17:43:48;9.93;;;6.13;;
46110;SDS011;31849;55.992;37.252;2023-07-02T17:48:55;9.88;;;5.90;;
46110;SDS011;31849;55.992;37.252;2023-07-02T17:53:59;10.25;;;5.75;;
46110;SDS011;31849;55.992;37.252;2023-07-02T17:59:02;11.98;;;6.30;;
46110;SDS011;31849;55.992;37.252;2023-07-02T18:04:09;9.43;;;5.88;;
46110;SDS011;31849;55.992;37.252;2023-07-02T18:09:16;13.05;;;6.80;;
46110;SDS011;31849;55.992;37.252;2023-07-02T18:14:21;11.75;;;6.40;;
46110;SDS011;31849;55.992;37.252;2023-07-02T18:19:30;9.38;;;6.63;;
46110;SDS011;31849;55.992;37.252;2023-07-02T18:24:38;12.63;;;7.18;;
46110;SDS011;31849;55.992;37.252;2023-07-02T18:29:47;8.43;;;6.05;;
46110;SDS011;31849;55.992;37.252;2023-07-02T18:34:54;10.23;;;6.68;;
46110;SDS011;31849;55.992;37.252;2023-07-02T18:39:58;10.90;;;6.35;;
46110;SDS011;31849;55.992;37.252;2023-07-02T18:45:05;12.77;;;6.43;;
46110;SDS011;31849;55.992;37.252;2023-07-02T18:50:11;9.90;;;6.93;;
46110;SDS011;31849;55.992;37.252;2023-07-02T18:55:16;9.48;;;6.20;;
46110;SDS011;31849;55.992;37.252;2023-07-02T19:00:21;12.55;;;6.70;;
46110;SDS011;31849;55.992;37.252;2023-07-02T19:05:26;14.57;;;6.93;;
46110;SDS011;31849;55.992;37.252;2023-07-02T19:10:29;13.05;;;6.90;;
46110;SDS011;31849;55.992;37.252;2023-07-02T19:15:33;10.77;;;6.70;;
46110;SDS011;31849;55.992;37.252;2023-07-02T19:20:38;10.40;;;6.27;;
46110;SDS011;31849;55.992;37.252;2023-07-02T19:25:42;12.25;;;6.78;;
46110;SDS011;31849;55.992;37.252;2023-07-02T19:30:47;12.75;;;7.22;;
46110;SDS011;31849;55.992;37.252;2023-07-02T19:35:52;13.05;;;6.80;;
46110;SDS011;31849;55.992;37.252;2023-07-02T19:40:56;13.40;;;7.38;;
46110;SDS011;31849;55.992;37.252;2023-07-02T19:46:00;12.93;;;7.35;;
46110;SDS011;31849;55.992;37.252;2023-07-02T19:51:06;13.57;;;6.90;;
46110;SDS011;31849;55.992;37.252;2023-07-02T19:56:10;12.15;;;7.25;;
46110;SDS011;31849;55.992;37.252;2023-07-02T20:01:13;19.75;;;7.25;;
46110;SDS011;31849;55.992;37.252;2023-07-02T20:06:19;13.57;;;7.43;;
46110;SDS011;31849;55.992;37.252;2023-07-02T20:11:23;13.35;;;7.50;;
46110;SDS011;31849;55.992;37.252;2023-07-02T20:16:26;12.93;;;8.27;;
46110;SDS011;31849;55.992;37.252;2023-07-02T20:21:32;11.73;;;7.22;;
46110;SDS011;31849;55.992;37.252;2023-07-02T20:26:36;18.17;;;7.63;;
46110;SDS011;31849;55.992;37.252;2023-07-02T20:31:39;16.27;;;7.90;;
46110;SDS011;31849;55.992;37.252;2023-07-02T20:36:44;18.17;;;8.23;;
46110;SDS011;31849;55.992;37.252;2023-07-02T20:41:48;11.65;;;7.50;;
46110;SDS011;31849;55.992;37.252;2023-07-02T20:46:52;18.08;;;7.93;;
46110;SDS011;31849;55.992;37.252;2023-07-02T20:51:57;10.60;;;7.20;;
46110;SDS011;31849;55.992;37.252;2023-07-02T20:57:00;14.13;;;7.65;;
46110;SDS011;31849;55.992;37.252;2023-07-02T21:02:04;15.97;;;8.07;;
46110;SDS011;31849;55.992;37.252;2023-07-02T21:07:10;12.98;;;7.60;;
46110;SDS011;31849;55.992;37.252;2023-07-02T21:12:14;14.35;;;8.30;;
46110;SDS011;31849;55.992;37.252;2023-07-02T21:17:18;12.47;;;8.00;;
46110;SDS011;31849;55.992;37.252;2023-07-02T21:22:23;14.63;;;7.65;;
46110;SDS011;31849;55.992;37.252;2023-07-02T21:27:29;14.98;;;7.90;;
46110;SDS011;31849;55.992;37.252;2023-07-02T21:32:34;13.57;;;8.10;;
46110;SDS011;31849;55.992;37.252;2023-07-02T21:37:39;18.20;;;7.97;;
46110;SDS011;31849;55.992;37.252;2023-07-02T21:42:43;17.33;;;8.35;;
46110;SDS011;31849;55.992;37.252;2023-07-02T21:47:47;18.70;;;8.00;;
46110;SDS011;31849;55.992;37.252;2023-07-02T21:52:52;15.70;;;8.57;;
46110;SDS011;31849;55.992;37.252;2023-07-02T21:57:56;13.73;;;8.40;;
46110;SDS011;31849;55.992;37.252;2023-07-02T22:02:59;14.48;;;8.25;;
46110;SDS011;31849;55.992;37.252;2023-07-02T22:08:04;17.77;;;8.60;;
46110;SDS011;31849;55.992;37.252;2023-07-02T22:13:09;12.75;;;8.27;;
46110;SDS011;31849;55.992;37.252;2023-07-02T22:18:13;14.38;;;8.52;;
46110;SDS011;31849;55.992;37.252;2023-07-02T22:23:18;13.18;;;8.25;;
46110;SDS011;31849;55.992;37.252;2023-07-02T22:28:22;15.13;;;8.60;;
46110;SDS011;31849;55.992;37.252;2023-07-02T22:33:25;15.33;;;8.50;;
46110;SDS011;31849;55.992;37.252;2023-07-02T22:38:31;17.77;;;10.03;;
46110;SDS011;31849;55.992;37.252;2023-07-02T22:43:34;14.23;;;8.57;;
46110;SDS011;31849;55.992;37.252;2023-07-02T22:48:38;16.90;;;9.57;;
46110;SDS011;31849;55.992;37.252;2023-07-02T22:53:43;17.90;;;9.03;;
46110;SDS011;31849;55.992;37.252;2023-07-02T22:58:46;17.42;;;9.05;;
46110;SDS011;31849;55.992;37.252;2023-07-02T23:03:51;16.27;;;9.10;;
46110;SDS011;31849;55.992;37.252;2023-07-02T23:08:56;14.77;;;9.45;;
46110;SDS011;31849;55.992;37.252;2023-07-02T23:14:00;19.73;;;9.18;;
46110;SDS011;31849;55.992;37.252;2023-07-02T23:19:03;18.53;;;8.73;;
46110;SDS011;31849;55.992;37.252;2023-07-02T23:24:09;16.17;;;9.17;;
46110;SDS011;31849;55.992;37.252;2023-07-02T23:29:12;17.42;;;9.35;;
46110;SDS011;31849;55.992;37.252;2023-07-02T23:34:22;16.27;;;9.23;;
46110;SDS011;31849;55.992;37.252;2023-07-02T23:44:31;18.60;;;10.07;;
46110;SDS011;31849;55.992;37.252;2023-07-02T23:49:35;18.90;;;9.67;;
46110;SDS011;31849;55.992;37.252;2023-07-02T23:54:40;19.87;;;9.90;;
46110;SDS011;31849;55.992;37.252;2023-07-02T23:59:44;17.17;;;10.60;;
